sensor_id;sensor_type;location;lat;lon;timestamp;pressure;altitude;pressure_sealevel;temperature;humidity
11648;BME280;5880;52.342;9.662;2022-07-29T00:00:01;101226.69;;;23.55;31.45
11648;BME280;5880;52.342;9.662;2022-07-29T00:02:27;101223.09;;;23.54;31.62
11648;BME280;5880;52.342;9.662;2022-07-29T00:04:53;101212.03;;;23.49;31.58
11648;BME280;5880;52.342;9.662;2022-07-29T00:07:19;101212.03;;;23.49;31.55
11648;BME280;5880;52.342;9.662;2022-07-29T00:09:45;101217.59;;;23.49;31.43
11648;BME280;5880;52.342;9.662;2022-07-29T00:12:11;101216.78;;;23.49;31.53
11648;BME280;5880;52.342;9.662;2022-07-29T00:14:37;101205.63;;;23.49;31.65
11648;BME280;5880;52.342;9.662;2022-07-29T00:17:02;101205.28;;;23.50;31.61
11648;BME280;5880;52.342;9.662;2022-07-29T00:19:28;101210.88;;;23.50;31.54
11648;BME280;5880;52.342;9.662;2022-07-29T00:21:54;101212.84;;;23.50;31.72
11648;BME280;5880;52.342;9.662;2022-07-29T00:24:19;101207.25;;;23.50;31.62
11648;BME280;5880;52.342;9.662;2022-07-29T00:26:45;101208.09;;;23.50;31.52
11648;BME280;5880;52.342;9.662;2022-07-29T00:29:11;101202.22;;;23.52;31.62
11648;BME280;5880;52.342;9.662;2022-07-29T00:31:36;101196.94;;;23.50;31.63
11648;BME280;5880;52.342;9.662;2022-07-29T00:34:02;101194.97;;;23.51;31.59
11648;BME280;5880;52.342;9.662;2022-07-29T00:36:28;101187.84;;;23.45;31.89
11648;BME280;5880;52.342;9.662;2022-07-29T00:38:54;101192.78;;;23.48;31.67
11648;BME280;5880;52.342;9.662;2022-07-29T00:41:20;101181.97;;;23.46;31.69
11648;BME280;5880;52.342;9.662;2022-07-29T00:43:46;101182.53;;;23.43;31.73
11648;BME280;5880;52.342;9.662;2022-07-29T00:46:12;101186.69;;;23.46;31.80
11648;BME280;5880;52.342;9.662;2022-07-29T00:48:38;101185.56;;;23.47;31.91
11648;BME280;5880;52.342;9.662;2022-07-29T00:51:05;101189.69;;;23.49;31.77
11648;BME280;5880;52.342;9.662;2022-07-29T00:53:35;101181.34;;;23.49;32.01
11648;BME280;5880;52.342;9.662;2022-07-29T00:56:01;101180.00;;;23.47;31.97
11648;BME280;5880;52.342;9.662;2022-07-29T00:58:27;101177.50;;;23.45;31.79
11648;BME280;5880;52.342;9.662;2022-07-29T01:00:53;101171.91;;;23.45;32.02
11648;BME280;5880;52.342;9.662;2022-07-29T01:03:19;101173.59;;;23.46;31.96
11648;BME280;5880;52.342;9.662;2022-07-29T01:05:46;101162.50;;;23.41;32.12
11648;BME280;5880;52.342;9.662;2022-07-29T01:08:14;101165.50;;;23.45;31.83
11648;BME280;5880;52.342;9.662;2022-07-29T01:10:41;101158.88;;;23.41;31.83
11648;BME280;5880;52.342;9.662;2022-07-29T01:13:10;101167.34;;;23.35;31.59
11648;BME280;5880;52.342;9.662;2022-07-29T01:15:59;101160.19;;;23.29;32.15
11648;BME280;5880;52.342;9.662;2022-07-29T01:18:33;101158.94;;;23.22;32.07
11648;BME280;5880;52.342;9.662;2022-07-29T01:21:27;101159.84;;;23.17;32.19
11648;BME280;5880;52.342;9.662;2022-07-29T01:24:14;101157.69;;;23.14;32.20
11648;BME280;5880;52.342;9.662;2022-07-29T01:26:57;101146.28;;;23.10;32.23
11648;BME280;5880;52.342;9.662;2022-07-29T01:29:43;101138.56;;;23.07;32.24
11648;BME280;5880;52.342;9.662;2022-07-29T01:32:15;101138.09;;;23.00;32.17
11648;BME280;5880;52.342;9.662;2022-07-29T01:35:03;101145.03;;;23.03;32.35
11648;BME280;5880;52.342;9.662;2022-07-29T01:37:53;101129.19;;;22.98;32.42
11648;BME280;5880;52.342;9.662;2022-07-29T01:40:47;101137.34;;;22.94;32.35
11648;BME280;5880;52.342;9.662;2022-07-29T01:43:19;101133.19;;;22.92;32.46
11648;BME280;5880;52.342;9.662;2022-07-29T01:45:53;101133.72;;;22.94;32.22
11648;BME280;5880;52.342;9.662;2022-07-29T01:48:47;101127.41;;;22.88;32.43
11648;BME280;5880;52.342;9.662;2022-07-29T01:51:41;101131.53;;;22.91;32.53
11648;BME280;5880;52.342;9.662;2022-07-29T01:54:30;101128.22;;;22.89;32.60
11648;BME280;5880;52.342;9.662;2022-07-29T01:57:00;101136.06;;;22.87;32.65
11648;BME280;5880;52.342;9.662;2022-07-29T01:59:27;101134.94;;;22.88;32.60
11648;BME280;5880;52.342;9.662;2022-07-29T02:01:57;101130.47;;;22.87;32.43
11648;BME280;5880;52.342;9.662;2022-07-29T02:04:25;101127.16;;;22.85;32.58
11648;BME280;5880;52.342;9.662;2022-07-29T02:06:58;101117.78;;;22.81;32.70
11648;BME280;5880;52.342;9.662;2022-07-29T02:09:25;101130.34;;;22.78;32.54
11648;BME280;5880;52.342;9.662;2022-07-29T02:11:54;101115.94;;;22.71;32.64
11648;BME280;5880;52.342;9.662;2022-07-29T02:14:22;101113.41;;;22.74;32.80
11648;BME280;5880;52.342;9.662;2022-07-29T02:16:52;101107.91;;;22.69;32.90
11648;BME280;5880;52.342;9.662;2022-07-29T02:19:23;101112.34;;;22.70;32.87
11648;BME280;5880;52.342;9.662;2022-07-29T02:21:52;101118.81;;;22.66;33.00
11648;BME280;5880;52.342;9.662;2022-07-29T02:24:20;101115.00;;;22.62;33.02
11648;BME280;5880;52.342;9.662;2022-07-29T02:26:50;101116.13;;;22.61;33.02
11648;BME280;5880;52.342;9.662;2022-07-29T02:29:21;101112.50;;;22.60;32.92
11648;BME280;5880;52.342;9.662;2022-07-29T02:31:50;101110.03;;;22.59;32.95
11648;BME280;5880;52.342;9.662;2022-07-29T02:34:18;101110.63;;;22.55;32.99
11648;BME280;5880;52.342;9.662;2022-07-29T02:36:45;101104.81;;;22.52;32.95
11648;BME280;5880;52.342;9.662;2022-07-29T02:39:12;101111.53;;;22.51;33.16
11648;BME280;5880;52.342;9.662;2022-07-29T02:41:59;101107.94;;;22.50;32.99
11648;BME280;5880;52.342;9.662;2022-07-29T02:44:28;101107.69;;;22.47;33.14
11648;BME280;5880;52.342;9.662;2022-07-29T02:47:23;101105.50;;;22.44;33.26
11648;BME280;5880;52.342;9.662;2022-07-29T02:49:57;101102.56;;;22.35;33.30
11648;BME280;5880;52.342;9.662;2022-07-29T02:52:41;101109.28;;;22.34;33.32
11648;BME280;5880;52.342;9.662;2022-07-29T02:55:33;101109.84;;;22.31;33.19
11648;BME280;5880;52.342;9.662;2022-07-29T02:58:21;101109.84;;;22.31;33.37
11648;BME280;5880;52.342;9.662;2022-07-29T03:00:56;101104.28;;;22.31;33.49
11648;BME280;5880;52.342;9.662;2022-07-29T03:03:29;101095.13;;;22.30;33.33
11648;BME280;5880;52.342;9.662;2022-07-29T03:05:57;101098.72;;;22.31;33.47
11648;BME280;5880;52.342;9.662;2022-07-29T03:08:26;101092.94;;;22.27;33.56
11648;BME280;5880;52.342;9.662;2022-07-29T03:10:53;101087.06;;;22.29;33.51
11648;BME280;5880;52.342;9.662;2022-07-29T03:13:21;101089.00;;;22.28;33.48
11648;BME280;5880;52.342;9.662;2022-07-29T03:15:47;101077.13;;;22.23;33.76
11648;BME280;5880;52.342;9.662;2022-07-29T03:18:14;101087.66;;;22.26;33.63
11648;BME280;5880;52.342;9.662;2022-07-29T03:20:40;101092.31;;;22.30;33.74
11648;BME280;5880;52.342;9.662;2022-07-29T03:23:08;101084.78;;;22.31;33.69
11648;BME280;5880;52.342;9.662;2022-07-29T03:25:34;101083.69;;;22.32;33.52
11648;BME280;5880;52.342;9.662;2022-07-29T03:28:00;101083.97;;;22.30;33.55
11648;BME280;5880;52.342;9.662;2022-07-29T03:30:26;101084.06;;;22.25;33.63
11648;BME280;5880;52.342;9.662;2022-07-29T03:32:52;101084.59;;;22.27;33.62
11648;BME280;5880;52.342;9.662;2022-07-29T03:35:19;101086.00;;;22.25;33.73
11648;BME280;5880;52.342;9.662;2022-07-29T03:37:46;101084.66;;;22.22;33.90
11648;BME280;5880;52.342;9.662;2022-07-29T03:40:19;101079.09;;;22.22;33.89
11648;BME280;5880;52.342;9.662;2022-07-29T03:42:46;101084.38;;;22.19;33.70
11648;BME280;5880;52.342;9.662;2022-07-29T03:45:17;101078.81;;;22.19;34.00
11648;BME280;5880;52.342;9.662;2022-07-29T03:47:48;101088.31;;;22.18;33.91
11648;BME280;5880;52.342;9.662;2022-07-29T03:50:17;101086.97;;;22.15;33.96
11648;BME280;5880;52.342;9.662;2022-07-29T03:52:45;101091.16;;;22.12;33.85
11648;BME280;5880;52.342;9.662;2022-07-29T03:55:11;101095.66;;;22.08;34.02
11648;BME280;5880;52.342;9.662;2022-07-29T03:57:39;101093.47;;;22.05;34.11
11648;BME280;5880;52.342;9.662;2022-07-29T04:00:06;101099.63;;;22.02;34.19
11648;BME280;5880;52.342;9.662;2022-07-29T04:02:32;101089.63;;;22.01;34.28
11648;BME280;5880;52.342;9.662;2022-07-29T04:04:59;101093.00;;;21.98;34.18
11648;BME280;5880;52.342;9.662;2022-07-29T04:07:24;101092.50;;;21.96;34.17
11648;BME280;5880;52.342;9.662;2022-07-29T04:09:50;101086.97;;;21.91;34.32
11648;BME280;5880;52.342;9.662;2022-07-29T04:12:16;101093.13;;;21.88;34.38
11648;BME280;5880;52.342;9.662;2022-07-29T04:14:42;101102.63;;;21.87;34.41
11648;BME280;5880;52.342;9.662;2022-07-29T04:17:07;101095.91;;;21.88;34.51
11648;BME280;5880;52.342;9.662;2022-07-29T04:19:33;101100.34;;;21.89;34.58
11648;BME280;5880;52.342;9.662;2022-07-29T04:22:00;101097.88;;;21.87;34.46
11648;BME280;5880;52.342;9.662;2022-07-29T04:24:26;101097.56;;;21.89;34.55
11648;BME280;5880;52.342;9.662;2022-07-29T04:26:52;101093.13;;;21.88;34.31
11648;BME280;5880;52.342;9.662;2022-07-29T04:29:18;101093.13;;;21.88;34.45
11648;BME280;5880;52.342;9.662;2022-07-29T04:31:44;101096.19;;;21.86;34.66
11648;BME280;5880;52.342;9.662;2022-07-29T04:34:10;101096.53;;;21.85;34.70
11648;BME280;5880;52.342;9.662;2022-07-29T04:36:36;101102.09;;;21.85;34.75
11648;BME280;5880;52.342;9.662;2022-07-29T04:39:03;101110.50;;;21.80;34.76
11648;BME280;5880;52.342;9.662;2022-07-29T04:41:29;101106.03;;;21.79;34.72
11648;BME280;5880;52.342;9.662;2022-07-29T04:43:54;101106.59;;;21.81;34.88
11648;BME280;5880;52.342;9.662;2022-07-29T04:46:21;101103.81;;;21.81;34.76
11648;BME280;5880;52.342;9.662;2022-07-29T04:48:47;101104.41;;;21.78;35.02
11648;BME280;5880;52.342;9.662;2022-07-29T04:51:16;101097.69;;;21.79;35.03
11648;BME280;5880;52.342;9.662;2022-07-29T04:53:42;101089.97;;;21.76;34.93
11648;BME280;5880;52.342;9.662;2022-07-29T04:56:08;101099.13;;;21.76;35.13
11648;BME280;5880;52.342;9.662;2022-07-29T04:58:35;101103.03;;;21.75;35.27
11648;BME280;5880;52.342;9.662;2022-07-29T05:01:01;101098.94;;;21.67;35.41
11648;BME280;5880;52.342;9.662;2022-07-29T05:03:27;101097.91;;;21.63;35.07
11648;BME280;5880;52.342;9.662;2022-07-29T05:05:53;101097.28;;;21.66;35.10
11648;BME280;5880;52.342;9.662;2022-07-29T05:08:18;101111.97;;;21.72;35.21
11648;BME280;5880;52.342;9.662;2022-07-29T05:10:44;101110.00;;;21.73;35.47
11648;BME280;5880;52.342;9.662;2022-07-29T05:13:10;101107.00;;;21.69;35.50
11648;BME280;5880;52.342;9.662;2022-07-29T05:15:36;101110.59;;;21.69;35.37
11648;BME280;5880;52.342;9.662;2022-07-29T05:18:03;101102.50;;;21.73;35.55
11648;BME280;5880;52.342;9.662;2022-07-29T05:20:30;101101.38;;;21.74;35.34
11648;BME280;5880;52.342;9.662;2022-07-29T05:22:58;101104.75;;;21.71;35.61
11648;BME280;5880;52.342;9.662;2022-07-29T05:25:26;101106.72;;;21.70;35.68
11648;BME280;5880;52.342;9.662;2022-07-29T05:27:52;101097.50;;;21.70;35.70
11648;BME280;5880;52.342;9.662;2022-07-29T05:30:18;101105.03;;;21.69;35.66
11648;BME280;5880;52.342;9.662;2022-07-29T05:32:44;101096.69;;;21.69;35.74
11648;BME280;5880;52.342;9.662;2022-07-29T05:35:10;101098.66;;;21.69;36.06
11648;BME280;5880;52.342;9.662;2022-07-29T05:37:35;101105.91;;;21.65;35.92
11648;BME280;5880;52.342;9.662;2022-07-29T05:40:02;101100.59;;;21.68;35.80
11648;BME280;5880;52.342;9.662;2022-07-29T05:42:28;101099.47;;;21.69;35.90
11648;BME280;5880;52.342;9.662;2022-07-29T05:44:55;101098.59;;;21.74;36.17
11648;BME280;5880;52.342;9.662;2022-07-29T05:47:21;101083.84;;;21.74;36.01
11648;BME280;5880;52.342;9.662;2022-07-29T05:49:47;101094.63;;;21.80;36.22
11648;BME280;5880;52.342;9.662;2022-07-29T05:52:13;101091.31;;;21.78;36.14
11648;BME280;5880;52.342;9.662;2022-07-29T05:54:39;101086.84;;;21.77;36.06
11648;BME280;5880;52.342;9.662;2022-07-29T05:57:05;101090.72;;;21.81;35.96
11648;BME280;5880;52.342;9.662;2022-07-29T05:59:36;101092.59;;;21.86;36.09
11648;BME280;5880;52.342;9.662;2022-07-29T06:02:02;101091.25;;;21.83;36.07
11648;BME280;5880;52.342;9.662;2022-07-29T06:04:28;101096.44;;;21.90;36.23
11648;BME280;5880;52.342;9.662;2022-07-29T06:06:53;101090.88;;;21.90;36.16
11648;BME280;5880;52.342;9.662;2022-07-29T06:09:19;101098.69;;;21.88;36.27
11648;BME280;5880;52.342;9.662;2022-07-29T06:11:45;101099.78;;;21.92;36.33
11648;BME280;5880;52.342;9.662;2022-07-29T06:14:10;101091.41;;;21.92;36.46
11648;BME280;5880;52.342;9.662;2022-07-29T06:16:36;101096.31;;;22.00;36.43
11648;BME280;5880;52.342;9.662;2022-07-29T06:19:02;101088.50;;;22.02;36.69
11648;BME280;5880;52.342;9.662;2022-07-29T06:21:27;101091.81;;;22.04;36.51
11648;BME280;5880;52.342;9.662;2022-07-29T06:23:53;101080.44;;;22.01;36.70
11648;BME280;5880;52.342;9.662;2022-07-29T06:26:19;101084.81;;;22.07;37.16
11648;BME280;5880;52.342;9.662;2022-07-29T06:28:44;101076.72;;;22.10;37.07
11648;BME280;5880;52.342;9.662;2022-07-29T06:31:10;101098.25;;;22.24;37.00
11648;BME280;5880;52.342;9.662;2022-07-29T06:33:36;101090.97;;;22.28;36.81
11648;BME280;5880;52.342;9.662;2022-07-29T06:36:04;101087.75;;;22.40;36.89
11648;BME280;5880;52.342;9.662;2022-07-29T06:38:32;101093.75;;;22.47;37.08
11648;BME280;5880;52.342;9.662;2022-07-29T06:40:58;101081.09;;;22.54;36.88
11648;BME280;5880;52.342;9.662;2022-07-29T06:43:40;101089.69;;;22.58;36.68
11648;BME280;5880;52.342;9.662;2022-07-29T06:46:16;101090.44;;;22.64;36.75
11648;BME280;5880;52.342;9.662;2022-07-29T06:48:44;101079.81;;;22.66;36.96
11648;BME280;5880;52.342;9.662;2022-07-29T06:51:11;101078.63;;;22.72;37.00
11648;BME280;5880;52.342;9.662;2022-07-29T06:53:37;101079.69;;;22.76;36.91
11648;BME280;5880;52.342;9.662;2022-07-29T06:56:05;101078.53;;;22.77;36.86
11648;BME280;5880;52.342;9.662;2022-07-29T06:58:33;101085.38;;;22.85;36.86
11648;BME280;5880;52.342;9.662;2022-07-29T07:01:03;101096.94;;;22.92;36.80
11648;BME280;5880;52.342;9.662;2022-07-29T07:03:29;101094.78;;;22.89;36.70
11648;BME280;5880;52.342;9.662;2022-07-29T07:05:55;101102.69;;;23.01;36.69
11648;BME280;5880;52.342;9.662;2022-07-29T07:08:22;101103.94;;;23.08;36.78
11648;BME280;5880;52.342;9.662;2022-07-29T07:10:52;101101.09;;;23.13;36.63
11648;BME280;5880;52.342;9.662;2022-07-29T07:13:19;101090.97;;;23.17;36.69
11648;BME280;5880;52.342;9.662;2022-07-29T07:15:45;101093.69;;;23.23;36.70
11648;BME280;5880;52.342;9.662;2022-07-29T07:18:14;101090.19;;;23.31;36.71
11648;BME280;5880;52.342;9.662;2022-07-29T07:20:41;101089.78;;;23.37;36.80
11648;BME280;5880;52.342;9.662;2022-07-29T07:23:07;101089.38;;;23.44;36.67
11648;BME280;5880;52.342;9.662;2022-07-29T07:25:33;101079.56;;;23.47;36.45
11648;BME280;5880;52.342;9.662;2022-07-29T07:27:59;101093.41;;;23.52;36.46
11648;BME280;5880;52.342;9.662;2022-07-29T07:30:25;101087.44;;;23.58;36.46
11648;BME280;5880;52.342;9.662;2022-07-29T07:32:51;101083.72;;;23.63;36.43
11648;BME280;5880;52.342;9.662;2022-07-29T07:35:16;101081.44;;;23.65;36.38
11648;BME280;5880;52.342;9.662;2022-07-29T07:37:42;101084.44;;;23.69;36.30
11648;BME280;5880;52.342;9.662;2022-07-29T07:40:10;101085.78;;;23.71;36.36
11648;BME280;5880;52.342;9.662;2022-07-29T07:42:38;101081.03;;;23.72;36.12
11648;BME280;5880;52.342;9.662;2022-07-29T07:45:04;101082.69;;;23.73;36.20
11648;BME280;5880;52.342;9.662;2022-07-29T07:47:31;101085.19;;;23.74;36.34
11648;BME280;5880;52.342;9.662;2022-07-29T07:49:57;101101.63;;;23.76;36.29
11648;BME280;5880;52.342;9.662;2022-07-29T07:52:23;101105.25;;;23.76;36.47
11648;BME280;5880;52.342;9.662;2022-07-29T07:54:49;101092.13;;;23.77;36.07
11648;BME280;5880;52.342;9.662;2022-07-29T07:57:15;101093.47;;;23.79;36.18
11648;BME280;5880;52.342;9.662;2022-07-29T07:59:41;101095.44;;;23.79;36.23
11648;BME280;5880;52.342;9.662;2022-07-29T08:02:08;101089.34;;;23.77;36.01
11648;BME280;5880;52.342;9.662;2022-07-29T08:04:35;101096.03;;;23.76;36.23
11648;BME280;5880;52.342;9.662;2022-07-29T08:07:01;101087.38;;;23.77;36.16
11648;BME280;5880;52.342;9.662;2022-07-29T08:09:29;101085.38;;;23.78;36.11
11648;BME280;5880;52.342;9.662;2022-07-29T08:11:56;101085.09;;;23.79;36.14
11648;BME280;5880;52.342;9.662;2022-07-29T08:14:22;101080.97;;;23.77;36.06
11648;BME280;5880;52.342;9.662;2022-07-29T08:16:48;101083.50;;;23.73;36.11
11648;BME280;5880;52.342;9.662;2022-07-29T08:19:13;101077.72;;;23.70;36.06
11648;BME280;5880;52.342;9.662;2022-07-29T08:21:39;101074.94;;;23.70;36.06
11648;BME280;5880;52.342;9.662;2022-07-29T08:24:05;101079.88;;;23.73;36.21
11648;BME280;5880;52.342;9.662;2022-07-29T08:26:50;101083.31;;;23.70;36.24
11648;BME280;5880;52.342;9.662;2022-07-29T08:29:16;101082.47;;;23.69;36.03
11648;BME280;5880;52.342;9.662;2022-07-29T08:31:42;101084.13;;;23.70;36.27
11648;BME280;5880;52.342;9.662;2022-07-29T08:34:08;101081.25;;;23.75;36.39
11648;BME280;5880;52.342;9.662;2022-07-29T08:36:34;101081.47;;;23.79;36.25
11648;BME280;5880;52.342;9.662;2022-07-29T08:39:02;101083.94;;;23.80;36.35
11648;BME280;5880;52.342;9.662;2022-07-29T08:41:28;101087.25;;;23.83;36.51
11648;BME280;5880;52.342;9.662;2022-07-29T08:43:54;101088.28;;;23.87;36.51
11648;BME280;5880;52.342;9.662;2022-07-29T08:46:22;101090.97;;;23.92;36.36
11648;BME280;5880;52.342;9.662;2022-07-29T08:48:48;101098.22;;;23.93;36.48
11648;BME280;5880;52.342;9.662;2022-07-29T08:51:17;101098.63;;;24.00;36.38
11648;BME280;5880;52.342;9.662;2022-07-29T08:53:45;101101.31;;;24.05;36.32
11648;BME280;5880;52.342;9.662;2022-07-29T08:56:17;101093.63;;;24.11;36.41
11648;BME280;5880;52.342;9.662;2022-07-29T08:58:48;101090.22;;;24.14;36.32
11648;BME280;5880;52.342;9.662;2022-07-29T09:01:20;101094.38;;;24.16;36.40
11648;BME280;5880;52.342;9.662;2022-07-29T09:03:46;101092.59;;;24.20;36.29
11648;BME280;5880;52.342;9.662;2022-07-29T09:06:18;101087.84;;;24.21;36.26
11648;BME280;5880;52.342;9.662;2022-07-29T09:08:45;101080.81;;;24.23;36.43
11648;BME280;5880;52.342;9.662;2022-07-29T09:11:13;101087.09;;;24.29;36.27
11648;BME280;5880;52.342;9.662;2022-07-29T09:13:39;101080.69;;;24.29;36.17
11648;BME280;5880;52.342;9.662;2022-07-29T09:16:05;101074.47;;;24.32;36.53
11648;BME280;5880;52.342;9.662;2022-07-29T09:21:07;101080.78;;;24.37;36.15
11648;BME280;5880;52.342;9.662;2022-07-29T09:24:13;101078.47;;;24.39;36.22
11648;BME280;5880;52.342;9.662;2022-07-29T09:26:45;101075.19;;;24.37;36.12
11648;BME280;5880;52.342;9.662;2022-07-29T09:29:17;101077.34;;;24.40;36.43
11648;BME280;5880;52.342;9.662;2022-07-29T09:31:47;101072.78;;;24.44;36.46
11648;BME280;5880;52.342;9.662;2022-07-29T09:34:20;101073.59;;;24.45;36.17
11648;BME280;5880;52.342;9.662;2022-07-29T09:36:49;101073.38;;;24.55;36.02
11648;BME280;5880;52.342;9.662;2022-07-29T09:39:28;101066.53;;;24.61;36.02
11648;BME280;5880;52.342;9.662;2022-07-29T09:41:59;101068.91;;;24.68;36.30
11648;BME280;5880;52.342;9.662;2022-07-29T09:44:25;101077.16;;;24.73;36.15
11648;BME280;5880;52.342;9.662;2022-07-29T09:47:00;101070.91;;;24.76;35.83
11648;BME280;5880;52.342;9.662;2022-07-29T09:49:51;101070.28;;;24.79;35.86
11648;BME280;5880;52.342;9.662;2022-07-29T09:52:17;101069.47;;;24.79;36.29
11648;BME280;5880;52.342;9.662;2022-07-29T09:54:43;101072.97;;;24.84;36.33
11648;BME280;5880;52.342;9.662;2022-07-29T09:57:26;101066.44;;;24.89;36.36
11648;BME280;5880;52.342;9.662;2022-07-29T10:00:03;101072.69;;;24.95;36.19
11648;BME280;5880;52.342;9.662;2022-07-29T10:02:34;101081.91;;;24.95;35.88
11648;BME280;5880;52.342;9.662;2022-07-29T10:05:01;101074.34;;;24.96;35.83
11648;BME280;5880;52.342;9.662;2022-07-29T10:10:10;101075.22;;;25.05;36.01
11648;BME280;5880;52.342;9.662;2022-07-29T10:15:17;101067.28;;;25.21;35.82
11648;BME280;5880;52.342;9.662;2022-07-29T10:17:44;101065.50;;;25.25;35.74
11648;BME280;5880;52.342;9.662;2022-07-29T10:20:10;101059.78;;;25.30;35.98
11648;BME280;5880;52.342;9.662;2022-07-29T10:22:37;101058.81;;;25.35;35.73
11648;BME280;5880;52.342;9.662;2022-07-29T10:25:03;101061.47;;;25.40;35.85
11648;BME280;5880;52.342;9.662;2022-07-29T10:27:29;101056.06;;;25.43;35.75
11648;BME280;5880;52.342;9.662;2022-07-29T10:29:54;101056.72;;;25.49;35.82
11648;BME280;5880;52.342;9.662;2022-07-29T10:32:51;101049.34;;;25.53;35.60
11648;BME280;5880;52.342;9.662;2022-07-29T10:35:57;101049.34;;;25.53;35.74
11648;BME280;5880;52.342;9.662;2022-07-29T10:41:59;101045.53;;;25.49;36.07
11648;BME280;5880;52.342;9.662;2022-07-29T10:44:28;101050.00;;;25.50;35.82
11648;BME280;5880;52.342;9.662;2022-07-29T10:46:54;101056.56;;;25.54;35.99
11648;BME280;5880;52.342;9.662;2022-07-29T10:49:23;101053.81;;;25.63;36.08
11648;BME280;5880;52.342;9.662;2022-07-29T10:54:39;101052.06;;;25.76;35.77
11648;BME280;5880;52.342;9.662;2022-07-29T10:57:20;101046.13;;;25.77;35.56
11648;BME280;5880;52.342;9.662;2022-07-29T11:05:18;101033.78;;;25.78;35.77
11648;BME280;5880;52.342;9.662;2022-07-29T11:10:39;101047.13;;;25.81;35.99
11648;BME280;5880;52.342;9.662;2022-07-29T11:13:05;101045.50;;;25.80;35.42
11648;BME280;5880;52.342;9.662;2022-07-29T11:15:54;101042.84;;;25.84;35.75
11648;BME280;5880;52.342;9.662;2022-07-29T11:18:21;101050.44;;;25.83;35.52
11648;BME280;5880;52.342;9.662;2022-07-29T11:20:49;101046.69;;;25.88;35.86
11648;BME280;5880;52.342;9.662;2022-07-29T11:23:33;101051.63;;;25.91;35.74
11648;BME280;5880;52.342;9.662;2022-07-29T11:26:13;101046.03;;;25.91;35.70
11648;BME280;5880;52.342;9.662;2022-07-29T11:28:59;101043.22;;;25.91;35.61
11648;BME280;5880;52.342;9.662;2022-07-29T11:31:37;101046.53;;;25.93;35.60
11648;BME280;5880;52.342;9.662;2022-07-29T11:34:28;101043.41;;;25.95;35.50
11648;BME280;5880;52.342;9.662;2022-07-29T11:39:34;101042.56;;;25.94;35.98
11648;BME280;5880;52.342;9.662;2022-07-29T11:45:01;101045.75;;;26.01;35.92
11648;BME280;5880;52.342;9.662;2022-07-29T11:47:32;101034.19;;;26.03;36.12
11648;BME280;5880;52.342;9.662;2022-07-29T11:50:01;101045.56;;;26.06;36.09
11648;BME280;5880;52.342;9.662;2022-07-29T11:52:36;101030.59;;;26.11;35.89
11648;BME280;5880;52.342;9.662;2022-07-29T11:55:10;101033.03;;;26.13;35.79
11648;BME280;5880;52.342;9.662;2022-07-29T11:57:38;101033.22;;;26.16;35.96
11648;BME280;5880;52.342;9.662;2022-07-29T12:00:11;101028.63;;;26.20;35.99
11648;BME280;5880;52.342;9.662;2022-07-29T12:02:43;101029.28;;;26.26;35.83
11648;BME280;5880;52.342;9.662;2022-07-29T12:05:10;101031.25;;;26.25;36.04
11648;BME280;5880;52.342;9.662;2022-07-29T12:07:39;101027.78;;;26.28;36.05
11648;BME280;5880;52.342;9.662;2022-07-29T12:10:07;101020.19;;;26.29;35.75
11648;BME280;5880;52.342;9.662;2022-07-29T12:12:34;101026.47;;;26.35;35.83
11648;BME280;5880;52.342;9.662;2022-07-29T12:15:18;101018.91;;;26.35;35.82
11648;BME280;5880;52.342;9.662;2022-07-29T12:17:47;101024.00;;;26.42;35.79
11648;BME280;5880;52.342;9.662;2022-07-29T12:20:13;101024.16;;;26.45;36.18
11648;BME280;5880;52.342;9.662;2022-07-29T12:22:41;101015.25;;;26.52;36.24
11648;BME280;5880;52.342;9.662;2022-07-29T12:25:13;101011.31;;;26.53;35.99
11648;BME280;5880;52.342;9.662;2022-07-29T12:27:41;101010.50;;;26.61;36.10
11648;BME280;5880;52.342;9.662;2022-07-29T12:30:12;101008.38;;;26.67;35.89
11648;BME280;5880;52.342;9.662;2022-07-29T12:32:46;101011.00;;;26.72;36.03
11648;BME280;5880;52.342;9.662;2022-07-29T12:35:18;101009.16;;;26.76;35.95
11648;BME280;5880;52.342;9.662;2022-07-29T12:37:46;101007.00;;;26.82;36.15
11648;BME280;5880;52.342;9.662;2022-07-29T12:40:16;101004.84;;;26.87;36.10
11648;BME280;5880;52.342;9.662;2022-07-29T12:45:32;101007.31;;;26.98;35.80
11648;BME280;5880;52.342;9.662;2022-07-29T12:47:58;101006.78;;;27.04;35.91
11648;BME280;5880;52.342;9.662;2022-07-29T12:50:24;101003.81;;;27.09;35.95
11648;BME280;5880;52.342;9.662;2022-07-29T12:52:50;100999.16;;;27.13;35.92
11648;BME280;5880;52.342;9.662;2022-07-29T12:55:43;101002.78;;;27.23;35.79
11648;BME280;5880;52.342;9.662;2022-07-29T12:58:09;100992.72;;;27.22;35.51
11648;BME280;5880;52.342;9.662;2022-07-29T13:00:34;101001.13;;;27.30;35.74
11648;BME280;5880;52.342;9.662;2022-07-29T13:03:00;100999.25;;;27.34;35.64
11648;BME280;5880;52.342;9.662;2022-07-29T13:05:42;100990.31;;;27.41;35.60
11648;BME280;5880;52.342;9.662;2022-07-29T13:08:16;100983.19;;;27.44;35.14
11648;BME280;5880;52.342;9.662;2022-07-29T13:10:43;100988.50;;;27.45;35.31
11648;BME280;5880;52.342;9.662;2022-07-29T13:13:11;100976.25;;;27.50;35.38
11648;BME280;5880;52.342;9.662;2022-07-29T13:15:42;100973.59;;;27.53;35.47
11648;BME280;5880;52.342;9.662;2022-07-29T13:18:34;100983.44;;;27.60;35.46
11648;BME280;5880;52.342;9.662;2022-07-29T13:21:15;100984.91;;;27.66;35.13
11648;BME280;5880;52.342;9.662;2022-07-29T13:23:41;100973.00;;;27.69;35.33
11648;BME280;5880;52.342;9.662;2022-07-29T13:26:10;100968.00;;;27.74;35.20
11648;BME280;5880;52.342;9.662;2022-07-29T13:28:41;100966.50;;;27.77;34.90
11648;BME280;5880;52.342;9.662;2022-07-29T13:31:07;100957.88;;;27.82;34.97
11648;BME280;5880;52.342;9.662;2022-07-29T13:33:33;100961.31;;;27.88;34.80
11648;BME280;5880;52.342;9.662;2022-07-29T13:35:58;100955.50;;;27.93;34.59
11648;BME280;5880;52.342;9.662;2022-07-29T13:38:24;100956.13;;;27.98;34.31
11648;BME280;5880;52.342;9.662;2022-07-29T13:40:50;100954.56;;;28.10;34.66
11648;BME280;5880;52.342;9.662;2022-07-29T13:43:16;100956.63;;;28.22;34.67